sensor_id;sensor_type;location;lat;lon;timestamp;temperature;humidity
66401;HTU21D;53211;45.040;38.788;2022-12-07T00:01:08;1.75;74.37
66401;HTU21D;53211;45.040;38.788;2022-12-07T00:03:35;1.72;74.36
66401;HTU21D;53211;45.040;38.788;2022-12-07T00:06:02;1.71;74.36
66401;HTU21D;53211;45.040;38.788;2022-12-07T00:08:30;1.72;74.38
66401;HTU21D;53211;45.040;38.788;2022-12-07T00:11:01;1.71;74.44
66401;HTU21D;53211;45.040;38.788;2022-12-07T00:13:28;1.70;74.47
66401;HTU21D;53211;45.040;38.788;2022-12-07T00:15:54;1.70;74.53
66401;HTU21D;53211;45.040;38.788;2022-12-07T00:18:20;1.69;74.51
66401;HTU21D;53211;45.040;38.788;2022-12-07T00:20:45;1.70;74.47
66401;HTU21D;53211;45.040;38.788;2022-12-07T00:23:11;1.71;74.47
66401;HTU21D;53211;45.040;38.788;2022-12-07T00:25:37;1.71;74.47
66401;HTU21D;53211;45.040;38.788;2022-12-07T00:28:03;1.72;74.50
66401;HTU21D;53211;45.040;38.788;2022-12-07T00:30:29;1.72;74.44
66401;HTU21D;53211;45.040;38.788;2022-12-07T00:32:55;1.72;74.47
66401;HTU21D;53211;45.040;38.788;2022-12-07T00:35:21;1.73;74.46
66401;HTU21D;53211;45.040;38.788;2022-12-07T00:37:47;1.73;74.47
66401;HTU21D;53211;45.040;38.788;2022-12-07T00:40:13;1.75;74.43
66401;HTU21D;53211;45.040;38.788;2022-12-07T00:42:39;1.73;74.41
66401;HTU21D;53211;45.040;38.788;2022-12-07T00:45:05;1.75;74.42
66401;HTU21D;53211;45.040;38.788;2022-12-07T00:47:31;1.75;74.44
66401;HTU21D;53211;45.040;38.788;2022-12-07T00:49:57;1.75;74.48
66401;HTU21D;53211;45.040;38.788;2022-12-07T00:52:23;1.72;74.49
66401;HTU21D;53211;45.040;38.788;2022-12-07T00:54:49;1.71;74.51
66401;HTU21D;53211;45.040;38.788;2022-12-07T00:57:15;1.71;74.54
66401;HTU21D;53211;45.040;38.788;2022-12-07T00:59:41;1.72;74.53
66401;HTU21D;53211;45.040;38.788;2022-12-07T01:02:07;1.70;74.57
66401;HTU21D;53211;45.040;38.788;2022-12-07T01:04:34;1.70;74.55
66401;HTU21D;53211;45.040;38.788;2022-12-07T01:07:00;1.71;74.57
66401;HTU21D;53211;45.040;38.788;2022-12-07T01:09:26;1.71;74.57
66401;HTU21D;53211;45.040;38.788;2022-12-07T01:11:52;1.70;74.55
66401;HTU21D;53211;45.040;38.788;2022-12-07T01:14:18;1.69;74.57
66401;HTU21D;53211;45.040;38.788;2022-12-07T01:16:43;1.68;74.59
66401;HTU21D;53211;45.040;38.788;2022-12-07T01:19:09;1.67;74.56
66401;HTU21D;53211;45.040;38.788;2022-12-07T01:21:36;1.67;74.54
66401;HTU21D;53211;45.040;38.788;2022-12-07T01:24:05;1.66;74.53
66401;HTU21D;53211;45.040;38.788;2022-12-07T01:26:32;1.67;74.60
66401;HTU21D;53211;45.040;38.788;2022-12-07T01:28:58;1.66;74.56
66401;HTU21D;53211;45.040;38.788;2022-12-07T01:31:27;1.64;74.52
66401;HTU21D;53211;45.040;38.788;2022-12-07T01:33:55;1.64;74.57
66401;HTU21D;53211;45.040;38.788;2022-12-07T01:36:32;1.64;74.62
66401;HTU21D;53211;45.040;38.788;2022-12-07T01:39:00;1.63;74.61
66401;HTU21D;53211;45.040;38.788;2022-12-07T01:41:29;1.62;74.66
66401;HTU21D;53211;45.040;38.788;2022-12-07T01:44:16;1.63;74.65
66401;HTU21D;53211;45.040;38.788;2022-12-07T01:46:54;1.63;74.64
66401;HTU21D;53211;45.040;38.788;2022-12-07T01:52:30;1.64;74.73
66401;HTU21D;53211;45.040;38.788;2022-12-07T01:55:00;1.63;74.78
66401;HTU21D;53211;45.040;38.788;2022-12-07T01:57:27;1.65;74.76
66401;HTU21D;53211;45.040;38.788;2022-12-07T01:59:55;1.65;74.81
66401;HTU21D;53211;45.040;38.788;2022-12-07T02:02:31;1.66;74.80
66401;HTU21D;53211;45.040;38.788;2022-12-07T02:04:59;1.66;74.82
66401;HTU21D;53211;45.040;38.788;2022-12-07T02:07:27;1.67;74.78
66401;HTU21D;53211;45.040;38.788;2022-12-07T02:09:54;1.68;74.78
66401;HTU21D;53211;45.040;38.788;2022-12-07T02:12:20;1.69;74.78
66401;HTU21D;53211;45.040;38.788;2022-12-07T02:14:47;1.70;74.77
66401;HTU21D;53211;45.040;38.788;2022-12-07T02:28:21;1.68;74.72
66401;HTU21D;53211;45.040;38.788;2022-12-07T02:30:54;1.65;74.73
66401;HTU21D;53211;45.040;38.788;2022-12-07T02:33:29;1.64;74.73
66401;HTU21D;53211;45.040;38.788;2022-12-07T02:35:59;1.61;74.77
66401;HTU21D;53211;45.040;38.788;2022-12-07T02:41:32;1.56;74.76
66401;HTU21D;53211;45.040;38.788;2022-12-07T02:44:02;1.55;74.76
66401;HTU21D;53211;45.040;38.788;2022-12-07T02:46:34;1.53;74.73
66401;HTU21D;53211;45.040;38.788;2022-12-07T02:49:02;1.50;74.74
66401;HTU21D;53211;45.040;38.788;2022-12-07T02:51:32;1.47;74.70
66401;HTU21D;53211;45.040;38.788;2022-12-07T02:53:59;1.46;74.67
66401;HTU21D;53211;45.040;38.788;2022-12-07T03:08:00;1.33;74.83
66401;HTU21D;53211;45.040;38.788;2022-12-07T03:13:18;1.28;74.86
66401;HTU21D;53211;45.040;38.788;2022-12-07T03:15:51;1.27;74.89
66401;HTU21D;53211;45.040;38.788;2022-12-07T03:18:21;1.25;74.87
66401;HTU21D;53211;45.040;38.788;2022-12-07T03:20:51;1.23;0.00
66401;HTU21D;53211;45.040;38.788;2022-12-07T03:23:18;1.21;74.87
66401;HTU21D;53211;45.040;38.788;2022-12-07T03:25:50;1.20;74.92
66401;HTU21D;53211;45.040;38.788;2022-12-07T03:28:21;1.19;74.88
66401;HTU21D;53211;45.040;38.788;2022-12-07T03:31:12;1.16;74.92
66401;HTU21D;53211;45.040;38.788;2022-12-07T03:33:54;1.14;74.96
66401;HTU21D;53211;45.040;38.788;2022-12-07T03:36:29;1.14;74.96
66401;HTU21D;53211;45.040;38.788;2022-12-07T03:39:13;1.12;74.94
66401;HTU21D;53211;45.040;38.788;2022-12-07T03:41:43;1.13;74.95
66401;HTU21D;53211;45.040;38.788;2022-12-07T03:44:10;1.13;75.00
66401;HTU21D;53211;45.040;38.788;2022-12-07T03:49:43;1.14;75.02
66401;HTU21D;53211;45.040;38.788;2022-12-07T03:52:25;1.13;74.99
66401;HTU21D;53211;45.040;38.788;2022-12-07T03:57:25;1.08;75.01
66401;HTU21D;53211;45.040;38.788;2022-12-07T03:59:54;1.07;74.95
66401;HTU21D;53211;45.040;38.788;2022-12-07T04:02:21;1.07;74.97
66401;HTU21D;53211;45.040;38.788;2022-12-07T04:04:47;1.06;74.98
66401;HTU21D;53211;45.040;38.788;2022-12-07T04:07:17;1.07;74.99
66401;HTU21D;53211;45.040;38.788;2022-12-07T04:09:43;1.06;75.00
66401;HTU21D;53211;45.040;38.788;2022-12-07T04:12:08;1.06;74.98
66401;HTU21D;53211;45.040;38.788;2022-12-07T04:14:34;1.06;74.96
66401;HTU21D;53211;45.040;38.788;2022-12-07T04:17:00;1.06;74.99
66401;HTU21D;53211;45.040;38.788;2022-12-07T04:19:32;1.07;75.00
66401;HTU21D;53211;45.040;38.788;2022-12-07T04:22:01;1.06;75.00
66401;HTU21D;53211;45.040;38.788;2022-12-07T04:24:28;1.08;75.03
66401;HTU21D;53211;45.040;38.788;2022-12-07T04:26:54;1.08;75.02
66401;HTU21D;53211;45.040;38.788;2022-12-07T04:29:21;1.07;75.02
66401;HTU21D;53211;45.040;38.788;2022-12-07T04:31:47;1.06;75.03
66401;HTU21D;53211;45.040;38.788;2022-12-07T04:34:13;1.06;74.94
66401;HTU21D;53211;45.040;38.788;2022-12-07T04:36:40;1.08;74.99
66401;HTU21D;53211;45.040;38.788;2022-12-07T04:39:07;1.07;75.00
66401;HTU21D;53211;45.040;38.788;2022-12-07T04:41:34;1.08;75.04
66401;HTU21D;53211;45.040;38.788;2022-12-07T04:44:02;1.10;75.02
66401;HTU21D;53211;45.040;38.788;2022-12-07T04:46:31;1.08;74.99
66401;HTU21D;53211;45.040;38.788;2022-12-07T04:48:57;1.09;75.00
66401;HTU21D;53211;45.040;38.788;2022-12-07T04:51:26;1.09;75.06
66401;HTU21D;53211;45.040;38.788;2022-12-07T04:53:54;1.10;75.04
66401;HTU21D;53211;45.040;38.788;2022-12-07T04:56:22;1.11;75.01
66401;HTU21D;53211;45.040;38.788;2022-12-07T04:58:50;1.10;75.02
66401;HTU21D;53211;45.040;38.788;2022-12-07T05:01:17;1.11;75.01
66401;HTU21D;53211;45.040;38.788;2022-12-07T05:03:43;1.11;75.06
66401;HTU21D;53211;45.040;38.788;2022-12-07T05:06:11;1.13;75.07
66401;HTU21D;53211;45.040;38.788;2022-12-07T05:08:37;1.16;75.04
66401;HTU21D;53211;45.040;38.788;2022-12-07T05:11:04;1.18;74.99
66401;HTU21D;53211;45.040;38.788;2022-12-07T05:13:30;1.18;74.97
66401;HTU21D;53211;45.040;38.788;2022-12-07T05:15:56;1.20;74.97
66401;HTU21D;53211;45.040;38.788;2022-12-07T05:18:22;1.21;74.98
66401;HTU21D;53211;45.040;38.788;2022-12-07T05:20:48;1.22;74.93
66401;HTU21D;53211;45.040;38.788;2022-12-07T05:23:14;1.24;74.99
66401;HTU21D;53211;45.040;38.788;2022-12-07T05:25:40;1.25;74.98
66401;HTU21D;53211;45.040;38.788;2022-12-07T05:28:06;1.26;75.00
66401;HTU21D;53211;45.040;38.788;2022-12-07T05:30:32;1.27;75.02
66401;HTU21D;53211;45.040;38.788;2022-12-07T05:32:59;1.29;75.00
66401;HTU21D;53211;45.040;38.788;2022-12-07T05:35:25;1.35;74.97
66401;HTU21D;53211;45.040;38.788;2022-12-07T05:37:51;1.39;74.97
66401;HTU21D;53211;45.040;38.788;2022-12-07T05:40:17;1.41;74.94
66401;HTU21D;53211;45.040;38.788;2022-12-07T05:42:44;1.43;74.86
66401;HTU21D;53211;45.040;38.788;2022-12-07T05:45:10;1.45;74.83
66401;HTU21D;53211;45.040;38.788;2022-12-07T05:47:37;1.45;74.81
66401;HTU21D;53211;45.040;38.788;2022-12-07T05:50:04;1.48;74.89
66401;HTU21D;53211;45.040;38.788;2022-12-07T05:52:30;1.52;74.92
66401;HTU21D;53211;45.040;38.788;2022-12-07T05:54:56;1.54;74.96
66401;HTU21D;53211;45.040;38.788;2022-12-07T05:57:22;1.60;74.98
66401;HTU21D;53211;45.040;38.788;2022-12-07T05:59:48;1.65;74.92
66401;HTU21D;53211;45.040;38.788;2022-12-07T06:02:15;1.69;74.88
66401;HTU21D;53211;45.040;38.788;2022-12-07T06:04:44;1.72;74.80
66401;HTU21D;53211;45.040;38.788;2022-12-07T06:07:12;1.75;74.74
66401;HTU21D;53211;45.040;38.788;2022-12-07T06:09:38;1.76;74.71
66401;HTU21D;53211;45.040;38.788;2022-12-07T06:12:04;1.78;74.73
66401;HTU21D;53211;45.040;38.788;2022-12-07T06:14:48;1.80;74.73
66401;HTU21D;53211;45.040;38.788;2022-12-07T06:17:14;1.80;74.70
66401;HTU21D;53211;45.040;38.788;2022-12-07T06:19:41;1.82;74.72
66401;HTU21D;53211;45.040;38.788;2022-12-07T06:22:07;1.83;74.76
66401;HTU21D;53211;45.040;38.788;2022-12-07T06:24:35;1.86;74.73
66401;HTU21D;53211;45.040;38.788;2022-12-07T06:27:01;1.87;74.75
66401;HTU21D;53211;45.040;38.788;2022-12-07T06:29:27;1.90;74.77
66401;HTU21D;53211;45.040;38.788;2022-12-07T06:31:53;1.94;74.80
66401;HTU21D;53211;45.040;38.788;2022-12-07T06:34:21;1.96;74.84
66401;HTU21D;53211;45.040;38.788;2022-12-07T06:36:49;2.01;74.86
66401;HTU21D;53211;45.040;38.788;2022-12-07T06:39:18;0.00;74.86
66401;HTU21D;53211;45.040;38.788;2022-12-07T06:41:44;2.03;74.81
66401;HTU21D;53211;45.040;38.788;2022-12-07T06:44:11;2.06;74.79
66401;HTU21D;53211;45.040;38.788;2022-12-07T06:46:37;2.06;74.79
66401;HTU21D;53211;45.040;38.788;2022-12-07T06:49:04;2.03;74.81
66401;HTU21D;53211;45.040;38.788;2022-12-07T06:51:31;2.03;74.93
66401;HTU21D;53211;45.040;38.788;2022-12-07T06:53:57;2.06;75.01
66401;HTU21D;53211;45.040;38.788;2022-12-07T06:56:24;2.07;75.06
66401;HTU21D;53211;45.040;38.788;2022-12-07T06:58:50;2.10;75.09
66401;HTU21D;53211;45.040;38.788;2022-12-07T07:01:17;2.14;75.35
66401;HTU21D;53211;45.040;38.788;2022-12-07T07:03:44;2.21;75.34
66401;HTU21D;53211;45.040;38.788;2022-12-07T07:06:12;2.23;75.31
66401;HTU21D;53211;45.040;38.788;2022-12-07T07:08:38;2.25;75.22
66401;HTU21D;53211;45.040;38.788;2022-12-07T07:11:06;2.30;75.27
66401;HTU21D;53211;45.040;38.788;2022-12-07T07:13:32;2.31;75.22
66401;HTU21D;53211;45.040;38.788;2022-12-07T07:15:58;2.31;75.20
66401;HTU21D;53211;45.040;38.788;2022-12-07T07:18:24;2.30;75.16
66401;HTU21D;53211;45.040;38.788;2022-12-07T07:20:51;2.29;75.21
66401;HTU21D;53211;45.040;38.788;2022-12-07T07:23:18;2.26;75.25
66401;HTU21D;53211;45.040;38.788;2022-12-07T07:25:44;2.26;75.23
66401;HTU21D;53211;45.040;38.788;2022-12-07T07:28:10;2.25;75.36
66401;HTU21D;53211;45.040;38.788;2022-12-07T07:30:37;2.26;75.48
66401;HTU21D;53211;45.040;38.788;2022-12-07T07:33:03;2.28;75.44
66401;HTU21D;53211;45.040;38.788;2022-12-07T07:35:31;2.31;75.41
66401;HTU21D;53211;45.040;38.788;2022-12-07T07:37:57;2.30;75.47
66401;HTU21D;53211;45.040;38.788;2022-12-07T07:40:24;2.32;75.43
66401;HTU21D;53211;45.040;38.788;2022-12-07T07:42:51;2.35;75.53
66401;HTU21D;53211;45.040;38.788;2022-12-07T07:45:18;2.37;75.54
66401;HTU21D;53211;45.040;38.788;2022-12-07T07:47:45;2.43;75.58
66401;HTU21D;53211;45.040;38.788;2022-12-07T07:50:11;2.52;75.62
66401;HTU21D;53211;45.040;38.788;2022-12-07T07:52:37;2.56;75.57
66401;HTU21D;53211;45.040;38.788;2022-12-07T07:55:03;2.58;75.57
66401;HTU21D;53211;45.040;38.788;2022-12-07T07:57:29;2.62;75.51
66401;HTU21D;53211;45.040;38.788;2022-12-07T07:59:55;2.62;75.50
66401;HTU21D;53211;45.040;38.788;2022-12-07T08:02:21;2.65;75.45
66401;HTU21D;53211;45.040;38.788;2022-12-07T08:04:47;2.65;75.43
66401;HTU21D;53211;45.040;38.788;2022-12-07T08:07:14;2.64;75.48
66401;HTU21D;53211;45.040;38.788;2022-12-07T08:09:41;2.62;75.55
66401;HTU21D;53211;45.040;38.788;2022-12-07T08:12:07;2.61;75.60
66401;HTU21D;53211;45.040;38.788;2022-12-07T08:14:34;2.60;75.65
66401;HTU21D;53211;45.040;38.788;2022-12-07T08:17:00;2.57;75.63
66401;HTU21D;53211;45.040;38.788;2022-12-07T08:19:26;2.56;75.72
66401;HTU21D;53211;45.040;38.788;2022-12-07T08:21:52;2.54;75.74
66401;HTU21D;53211;45.040;38.788;2022-12-07T08:24:18;2.57;75.90
66401;HTU21D;53211;45.040;38.788;2022-12-07T08:26:44;2.59;75.91
66401;HTU21D;53211;45.040;38.788;2022-12-07T08:29:10;2.60;76.12
66401;HTU21D;53211;45.040;38.788;2022-12-07T08:31:36;2.64;76.11
66401;HTU21D;53211;45.040;38.788;2022-12-07T08:34:02;2.67;76.30
66401;HTU21D;53211;45.040;38.788;2022-12-07T08:36:28;2.71;76.21
66401;HTU21D;53211;45.040;38.788;2022-12-07T08:38:54;2.79;76.18
66401;HTU21D;53211;45.040;38.788;2022-12-07T08:41:20;2.89;76.24
66401;HTU21D;53211;45.040;38.788;2022-12-07T08:43:46;2.98;76.15
66401;HTU21D;53211;45.040;38.788;2022-12-07T08:48:52;3.15;76.15
66401;HTU21D;53211;45.040;38.788;2022-12-07T08:51:21;3.25;76.23
66401;HTU21D;53211;45.040;38.788;2022-12-07T08:53:48;3.35;76.35
66401;HTU21D;53211;45.040;38.788;2022-12-07T08:56:15;3.48;76.28
66401;HTU21D;53211;45.040;38.788;2022-12-07T08:58:41;3.64;76.34
66401;HTU21D;53211;45.040;38.788;2022-12-07T09:01:07;3.82;76.19
66401;HTU21D;53211;45.040;38.788;2022-12-07T09:03:33;3.93;75.99
66401;HTU21D;53211;45.040;38.788;2022-12-07T09:05:59;4.02;75.85
66401;HTU21D;53211;45.040;38.788;2022-12-07T09:08:31;4.03;75.67
66401;HTU21D;53211;45.040;38.788;2022-12-07T09:10:58;4.01;75.73
66401;HTU21D;53211;45.040;38.788;2022-12-07T09:13:24;4.00;75.78
66401;HTU21D;53211;45.040;38.788;2022-12-07T09:15:50;4.03;75.99
66401;HTU21D;53211;45.040;38.788;2022-12-07T09:18:16;4.04;75.96
66401;HTU21D;53211;45.040;38.788;2022-12-07T09:20:41;3.99;75.93
66401;HTU21D;53211;45.040;38.788;2022-12-07T09:23:07;3.92;76.01
66401;HTU21D;53211;45.040;38.788;2022-12-07T09:25:34;3.85;76.02
66401;HTU21D;53211;45.040;38.788;2022-12-07T09:28:00;3.76;76.15
66401;HTU21D;53211;45.040;38.788;2022-12-07T09:30:29;3.70;76.46
66401;HTU21D;53211;45.040;38.788;2022-12-07T09:32:56;3.69;76.71
66401;HTU21D;53211;45.040;38.788;2022-12-07T09:35:23;3.70;76.89
66401;HTU21D;53211;45.040;38.788;2022-12-07T09:37:50;3.73;77.06
66401;HTU21D;53211;45.040;38.788;2022-12-07T09:40:18;3.75;77.10
66401;HTU21D;53211;45.040;38.788;2022-12-07T09:42:48;3.80;77.24
66401;HTU21D;53211;45.040;38.788;2022-12-07T09:45:22;3.85;77.18
66401;HTU21D;53211;45.040;38.788;2022-12-07T09:47:49;3.90;77.23
66401;HTU21D;53211;45.040;38.788;2022-12-07T09:50:24;3.92;77.27
66401;HTU21D;53211;45.040;38.788;2022-12-07T09:52:52;3.98;77.24
66401;HTU21D;53211;45.040;38.788;2022-12-07T09:55:27;4.02;77.31
66401;HTU21D;53211;45.040;38.788;2022-12-07T09:57:54;4.06;77.29
66401;HTU21D;53211;45.040;38.788;2022-12-07T10:00:22;4.10;77.37
66401;HTU21D;53211;45.040;38.788;2022-12-07T10:02:59;4.18;77.33
66401;HTU21D;53211;45.040;38.788;2022-12-07T10:05:30;4.26;77.34
66401;HTU21D;53211;45.040;38.788;2022-12-07T10:07:56;4.29;77.30
66401;HTU21D;53211;45.040;38.788;2022-12-07T10:10:29;4.34;77.28
66401;HTU21D;53211;45.040;38.788;2022-12-07T10:15:37;4.42;77.27
66401;HTU21D;53211;45.040;38.788;2022-12-07T10:18:38;4.47;77.34
66401;HTU21D;53211;45.040;38.788;2022-12-07T10:21:19;4.54;77.39
66401;HTU21D;53211;45.040;38.788;2022-12-07T10:24:19;4.60;77.45
66401;HTU21D;53211;45.040;38.788;2022-12-07T10:31:44;5.00;77.56
66401;HTU21D;53211;45.040;38.788;2022-12-07T10:36:51;5.33;76.81
66401;HTU21D;53211;45.040;38.788;2022-12-07T10:39:20;5.47;76.60
66401;HTU21D;53211;45.040;38.788;2022-12-07T10:42:04;5.62;76.49
66401;HTU21D;53211;45.040;38.788;2022-12-07T10:44:33;5.78;76.35
66401;HTU21D;53211;45.040;38.788;2022-12-07T10:52:57;6.44;75.69
66401;HTU21D;53211;45.040;38.788;2022-12-07T11:09:36;6.65;74.49
66401;HTU21D;53211;45.040;38.788;2022-12-07T11:15:10;6.64;74.31
66401;HTU21D;53211;45.040;38.788;2022-12-07T11:25:58;6.99;74.30
66401;HTU21D;53211;45.040;38.788;2022-12-07T11:36:39;7.08;73.81
66401;HTU21D;53211;45.040;38.788;2022-12-07T11:41:52;7.07;73.91
66401;HTU21D;53211;45.040;38.788;2022-12-07T11:47:13;7.14;74.40
66401;HTU21D;53211;45.040;38.788;2022-12-07T11:50:13;7.50;74.72
66401;HTU21D;53211;45.040;38.788;2022-12-07T11:52:49;8.00;74.60
66401;HTU21D;53211;45.040;38.788;2022-12-07T11:58:22;8.74;72.83
66401;HTU21D;53211;45.040;38.788;2022-12-07T12:00:51;8.67;72.37
66401;HTU21D;53211;45.040;38.788;2022-12-07T12:03:31;8.56;72.53
66401;HTU21D;53211;45.040;38.788;2022-12-07T12:06:02;8.59;72.99
66401;HTU21D;53211;45.040;38.788;2022-12-07T12:08:35;8.72;72.55
66401;HTU21D;53211;45.040;38.788;2022-12-07T12:11:29;8.79;71.39
66401;HTU21D;53211;45.040;38.788;2022-12-07T12:14:30;8.95;71.22
66401;HTU21D;53211;45.040;38.788;2022-12-07T12:20:03;8.95;70.42
66401;HTU21D;53211;45.040;38.788;2022-12-07T12:22:40;8.73;70.20
66401;HTU21D;53211;45.040;38.788;2022-12-07T12:25:26;8.41;70.42
66401;HTU21D;53211;45.040;38.788;2022-12-07T12:27:58;8.09;71.08
66401;HTU21D;53211;45.040;38.788;2022-12-07T12:30:38;7.85;71.54
66401;HTU21D;53211;45.040;38.788;2022-12-07T12:33:13;7.61;71.89
66401;HTU21D;53211;45.040;38.788;2022-12-07T12:35:40;7.37;71.93
66401;HTU21D;53211;45.040;38.788;2022-12-07T12:39:07;7.15;72.18
66401;HTU21D;53211;45.040;38.788;2022-12-07T12:46:54;6.59;72.75
66401;HTU21D;53211;45.040;38.788;2022-12-07T12:51:52;6.37;73.09
66401;HTU21D;53211;45.040;38.788;2022-12-07T12:54:27;6.26;73.18
66401;HTU21D;53211;45.040;38.788;2022-12-07T12:59:37;6.11;28.17
66401;HTU21D;53211;45.040;38.788;2022-12-07T13:02:21;6.02;73.44
66401;HTU21D;53211;45.040;38.788;2022-12-07T13:13:04;5.74;73.70
66401;HTU21D;53211;45.040;38.788;2022-12-07T13:23:30;5.47;74.06
66401;HTU21D;53211;45.040;38.788;2022-12-07T13:26:05;5.42;74.07
66401;HTU21D;53211;45.040;38.788;2022-12-07T13:28:41;5.35;74.08
66401;HTU21D;53211;45.040;38.788;2022-12-07T13:33:43;5.25;74.22
66401;HTU21D;53211;45.040;38.788;2022-12-07T13:36:29;5.23;74.30
66401;HTU21D;53211;45.040;38.788;2022-12-07T13:39:16;5.20;74.35
66401;HTU21D;53211;45.040;38.788;2022-12-07T13:41:44;5.18;74.39
66401;HTU21D;53211;45.040;38.788;2022-12-07T13:44:15;5.17;74.41
66401;HTU21D;53211;45.040;38.788;2022-12-07T13:47:00;5.15;74.41
66401;HTU21D;53211;45.040;38.788;2022-12-07T13:49:37;5.13;74.44
66401;HTU21D;53211;45.040;38.788;2022-12-07T13:52:14;5.09;74.46
66401;HTU21D;53211;45.040;38.788;2022-12-07T13:54:56;5.06;74.49
66401;HTU21D;53211;45.040;38.788;2022-12-07T13:57:24;5.06;74.56
66401;HTU21D;53211;45.040;38.788;2022-12-07T13:59:51;5.05;74.60
66401;HTU21D;53211;45.040;38.788;2022-12-07T14:02:29;5.06;74.65
66401;HTU21D;53211;45.040;38.788;2022-12-07T14:05:25;5.07;74.70
66401;HTU21D;53211;45.040;38.788;2022-12-07T14:07:57;5.07;74.75
66401;HTU21D;53211;45.040;38.788;2022-12-07T14:16:00;5.12;74.80
66401;HTU21D;53211;45.040;38.788;2022-12-07T14:18:40;5.16;74.80
66401;HTU21D;53211;45.040;38.788;2022-12-07T14:23:36;5.19;74.80
66401;HTU21D;53211;45.040;38.788;2022-12-07T14:26:13;5.19;74.81
66401;HTU21D;53211;45.040;38.788;2022-12-07T14:28:41;5.21;74.86
66401;HTU21D;53211;45.040;38.788;2022-12-07T14:31:17;5.22;74.87
66401;HTU21D;53211;45.040;38.788;2022-12-07T14:33:43;5.25;74.88
66401;HTU21D;53211;45.040;38.788;2022-12-07T14:36:11;5.28;74.90
66401;HTU21D;53211;45.040;38.788;2022-12-07T14:38:37;5.28;74.91
66401;HTU21D;53211;45.040;38.788;2022-12-07T14:41:04;5.32;74.94
66401;HTU21D;53211;45.040;38.788;2022-12-07T14:43:50;5.35;74.96
66401;HTU21D;53211;45.040;38.788;2022-12-07T14:46:16;5.36;74.97
66401;HTU21D;53211;45.040;38.788;2022-12-07T14:48:42;5.39;74.96
66401;HTU21D;53211;45.040;38.788;2022-12-07T14:51:10;5.41;74.96
66401;HTU21D;53211;45.040;38.788;2022-12-07T14:53:44;5.42;74.96
66401;HTU21D;53211;45.040;38.788;2022-12-07T14:56:11;5.46;74.95
66401;HTU21D;53211;45.040;38.788;2022-12-07T14:58:37;5.47;74.96
66401;HTU21D;53211;45.040;38.788;2022-12-07T15:01:03;5.47;74.90
66401;HTU21D;53211;45.040;38.788;2022-12-07T15:03:30;5.47;74.92
66401;HTU21D;53211;45.040;38.788;2022-12-07T15:05:56;5.48;74.92
66401;HTU21D;53211;45.040;38.788;2022-12-07T15:08:22;5.49;74.96
66401;HTU21D;53211;45.040;38.788;2022-12-07T15:10:48;5.48;74.97
66401;HTU21D;53211;45.040;38.788;2022-12-07T15:13:14;5.49;74.97
66401;HTU21D;53211;45.040;38.788;2022-12-07T15:15:58;5.48;75.00
66401;HTU21D;53211;45.040;38.788;2022-12-07T15:18:25;5.51;74.99
66401;HTU21D;53211;45.040;38.788;2022-12-07T15:20:51;5.49;74.98
66401;HTU21D;53211;45.040;38.788;2022-12-07T15:23:17;5.50;74.99
66401;HTU21D;53211;45.040;38.788;2022-12-07T15:25:45;5.51;75.02
66401;HTU21D;53211;45.040;38.788;2022-12-07T15:28:11;5.50;75.04
66401;HTU21D;53211;45.040;38.788;2022-12-07T15:30:38;5.51;75.05
66401;HTU21D;53211;45.040;38.788;2022-12-07T15:33:04;5.52;75.04
66401;HTU21D;53211;45.040;38.788;2022-12-07T15:35:30;5.52;75.06
66401;HTU21D;53211;45.040;38.788;2022-12-07T15:37:56;5.52;75.06
66401;HTU21D;53211;45.040;38.788;2022-12-07T15:40:22;5.52;75.09
66401;HTU21D;53211;45.040;38.788;2022-12-07T15:42:48;5.53;75.08
66401;HTU21D;53211;45.040;38.788;2022-12-07T15:45:14;5.53;75.10
66401;HTU21D;53211;45.040;38.788;2022-12-07T15:47:41;5.53;75.10
66401;HTU21D;53211;45.040;38.788;2022-12-07T15:50:11;5.54;75.13
66401;HTU21D;53211;45.040;38.788;2022-12-07T15:52:38;5.52;75.13
66401;HTU21D;53211;45.040;38.788;2022-12-07T15:55:04;5.52;75.17
66401;HTU21D;53211;45.040;38.788;2022-12-07T15:57:35;5.54;75.17
66401;HTU21D;53211;45.040;38.788;2022-12-07T16:00:07;5.54;75.19
66401;HTU21D;53211;45.040;38.788;2022-12-07T16:02:36;5.54;75.18
66401;HTU21D;53211;45.040;38.788;2022-12-07T16:05:02;5.54;75.19
66401;HTU21D;53211;45.040;38.788;2022-12-07T16:07:28;5.54;75.21
66401;HTU21D;53211;45.040;38.788;2022-12-07T16:09:54;5.54;75.18
66401;HTU21D;53211;45.040;38.788;2022-12-07T16:12:20;5.53;75.17
66401;HTU21D;53211;45.040;38.788;2022-12-07T16:14:46;5.53;75.18
66401;HTU21D;53211;45.040;38.788;2022-12-07T16:17:12;5.53;75.22
66401;HTU21D;53211;45.040;38.788;2022-12-07T16:19:38;5.52;75.24
66401;HTU21D;53211;45.040;38.788;2022-12-07T16:22:05;5.54;75.26
66401;HTU21D;53211;45.040;38.788;2022-12-07T16:24:31;5.53;75.26
66401;HTU21D;53211;45.040;38.788;2022-12-07T16:26:57;5.54;75.25
66401;HTU21D;53211;45.040;38.788;2022-12-07T16:29:23;5.54;75.26
66401;HTU21D;53211;45.040;38.788;2022-12-07T16:31:50;5.56;75.25
66401;HTU21D;53211;45.040;38.788;2022-12-07T16:34:17;5.54;75.28
66401;HTU21D;53211;45.040;38.788;2022-12-07T16:36:43;5.56;75.31
66401;HTU21D;53211;45.040;38.788;2022-12-07T16:39:09;5.56;75.32
66401;HTU21D;53211;45.040;38.788;2022-12-07T16:41:35;5.57;75.34
66401;HTU21D;53211;45.040;38.788;2022-12-07T16:44:04;5.57;75.33
66401;HTU21D;53211;45.040;38.788;2022-12-07T16:46:32;5.57;75.35
66401;HTU21D;53211;45.040;38.788;2022-12-07T16:48:58;5.57;75.36
66401;HTU21D;53211;45.040;38.788;2022-12-07T16:51:24;5.60;75.38
66401;HTU21D;53211;45.040;38.788;2022-12-07T16:53:52;5.59;75.39
66401;HTU21D;53211;45.040;38.788;2022-12-07T16:56:18;5.61;75.37
66401;HTU21D;53211;45.040;38.788;2022-12-07T16:58:44;5.62;75.32
66401;HTU21D;53211;45.040;38.788;2022-12-07T17:01:17;5.63;75.33
66401;HTU21D;53211;45.040;38.788;2022-12-07T17:03:47;5.64;75.31
66401;HTU21D;53211;45.040;38.788;2022-12-07T17:06:18;5.65;75.30
66401;HTU21D;53211;45.040;38.788;2022-12-07T17:08:45;5.65;75.29
66401;HTU21D;53211;45.040;38.788;2022-12-07T17:11:15;5.66;75.28
66401;HTU21D;53211;45.040;38.788;2022-12-07T17:13:42;5.64;75.28
66401;HTU21D;53211;45.040;38.788;2022-12-07T17:16:27;5.64;75.30
66401;HTU21D;53211;45.040;38.788;2022-12-07T17:18:53;5.65;75.26
66401;HTU21D;53211;45.040;38.788;2022-12-07T17:21:20;5.66;75.26
66401;HTU21D;53211;45.040;38.788;2022-12-07T17:23:48;5.64;75.30
66401;HTU21D;53211;45.040;38.788;2022-12-07T17:26:18;5.64;75.31
66401;HTU21D;53211;45.040;38.788;2022-12-07T17:28:44;5.65;75.28
66401;HTU21D;53211;45.040;38.788;2022-12-07T17:31:13;5.63;75.28
66401;HTU21D;53211;45.040;38.788;2022-12-07T17:33:45;5.63;75.27
66401;HTU21D;53211;45.040;38.788;2022-12-07T17:36:20;5.63;75.26
66401;HTU21D;53211;45.040;38.788;2022-12-07T17:38:47;5.63;75.20
66401;HTU21D;53211;45.040;38.788;2022-12-07T17:41:17;5.62;75.21
66401;HTU21D;53211;45.040;38.788;2022-12-07T17:44:07;5.62;75.15
66401;HTU21D;53211;45.040;38.788;2022-12-07T17:46:33;5.61;75.15